createdAt,value
2022-11-05T00:00:52.190Z,0
2022-11-05T00:01:52.258Z,0
2022-11-05T00:02:52.397Z,0
2022-11-05T00:03:52.271Z,0
2022-11-05T00:04:52.179Z,0
2022-11-05T00:05:52.198Z,0
2022-11-05T00:06:52.216Z,0
2022-11-05T00:07:52.185Z,0
2022-11-05T00:08:52.202Z,0
2022-11-05T00:09:52.210Z,0
2022-11-05T00:10:52.199Z,0
2022-11-05T00:11:52.198Z,0
2022-11-05T00:12:52.197Z,0
2022-11-05T00:13:52.262Z,0
2022-11-05T00:14:52.255Z,0
2022-11-05T00:15:52.268Z,0
2022-11-05T00:16:52.230Z,0
2022-11-05T00:17:52.240Z,0
2022-11-05T00:18:52.243Z,0
2022-11-05T00:19:52.264Z,0
2022-11-05T00:20:52.262Z,0
2022-11-05T00:21:52.263Z,0
2022-11-05T00:22:52.256Z,0
2022-11-05T00:23:52.256Z,0
2022-11-05T00:24:52.250Z,0
2022-11-05T00:25:52.239Z,0
2022-11-05T00:26:52.239Z,0
2022-11-05T00:27:52.262Z,0
2022-11-05T00:28:52.250Z,0
2022-11-05T00:29:52.268Z,0
2022-11-05T00:30:52.246Z,0
2022-11-05T00:31:52.254Z,0
2022-11-05T00:32:52.245Z,0
2022-11-05T00:33:52.250Z,0
2022-11-05T00:34:52.256Z,0
2022-11-05T00:35:52.244Z,0.5
2022-11-05T00:36:52.290Z,0
2022-11-05T00:37:52.268Z,0
2022-11-05T00:38:52.307Z,0
2022-11-05T00:39:52.270Z,0
2022-11-05T00:40:52.279Z,0
2022-11-05T00:41:52.272Z,0
2022-11-05T00:42:52.273Z,0
2022-11-05T00:43:52.290Z,0
2022-11-05T00:44:52.271Z,0
2022-11-05T00:45:52.293Z,0
2022-11-05T00:46:55.904Z,0
2022-11-05T00:47:52.303Z,0
2022-11-05T00:48:52.300Z,0
2022-11-05T00:49:52.296Z,0
2022-11-05T00:50:52.285Z,0
2022-11-05T00:51:52.314Z,0
2022-11-05T00:52:52.303Z,0
2022-11-05T00:53:52.342Z,0
2022-11-05T00:54:52.350Z,0
2022-11-05T00:55:52.440Z,0
2022-11-05T00:56:52.298Z,0
2022-11-05T00:57:52.347Z,0
2022-11-05T00:58:52.317Z,0
2022-11-05T00:59:52.325Z,0
2022-11-05T01:00:52.333Z,0
2022-11-05T01:01:52.366Z,0
2022-11-05T01:02:52.454Z,0
2022-11-05T01:03:52.316Z,0
2022-11-05T01:04:52.316Z,1.3
2022-11-05T01:05:52.360Z,1.2
2022-11-05T01:06:52.328Z,0.6
2022-11-05T01:07:52.328Z,0.7
2022-11-05T01:08:52.359Z,0
2022-11-05T01:09:52.332Z,0
2022-11-05T01:10:52.366Z,0
2022-11-05T01:11:52.338Z,0
2022-11-05T01:12:52.330Z,0
2022-11-05T01:13:52.376Z,0
2022-11-05T01:14:52.341Z,0
2022-11-05T01:15:52.350Z,0
2022-11-05T01:16:52.336Z,0.7
2022-11-05T01:17:52.385Z,0
2022-11-05T01:18:52.375Z,0
2022-11-05T01:19:52.382Z,0
2022-11-05T01:20:52.348Z,0
2022-11-05T01:21:52.348Z,0
2022-11-05T01:22:52.373Z,0
2022-11-05T01:23:52.389Z,0
2022-11-05T01:24:52.374Z,0
2022-11-05T01:25:52.363Z,0
2022-11-05T01:26:52.409Z,0.5
2022-11-05T01:27:52.365Z,0
2022-11-05T01:28:52.439Z,0
2022-11-05T01:29:52.373Z,0
2022-11-05T01:30:52.398Z,0
2022-11-05T01:31:52.376Z,0
2022-11-05T01:32:52.407Z,0
2022-11-05T01:33:52.404Z,0
2022-11-05T01:34:52.404Z,0
2022-11-05T01:35:52.392Z,0
2022-11-05T01:36:52.394Z,0
2022-11-05T01:37:52.421Z,0
2022-11-05T01:38:52.419Z,0
2022-11-05T01:39:52.444Z,0
2022-11-05T01:40:52.399Z,0
2022-11-05T01:41:52.395Z,0
2022-11-05T01:42:52.432Z,0
2022-11-05T01:43:52.403Z,0
2022-11-05T01:44:52.416Z,0
2022-11-05T01:45:52.403Z,0
2022-11-05T01:46:52.432Z,0
2022-11-05T01:47:52.414Z,0
2022-11-05T01:48:52.418Z,0
2022-11-05T01:49:52.403Z,0
2022-11-05T01:50:52.417Z,0
2022-11-05T01:51:52.413Z,0
2022-11-05T01:52:52.416Z,0
2022-11-05T01:53:52.441Z,0
2022-11-05T01:54:52.420Z,0
2022-11-05T01:55:52.436Z,0
2022-11-05T01:56:52.442Z,0
2022-11-05T01:57:52.452Z,0
2022-11-05T01:58:52.485Z,0
2022-11-05T01:59:52.463Z,0
2022-11-05T02:00:52.456Z,0
2022-11-05T02:01:52.539Z,0
2022-11-05T02:02:52.587Z,0
2022-11-05T02:03:52.483Z,0
2022-11-05T02:04:52.457Z,0
2022-11-05T02:05:52.455Z,0
2022-11-05T02:06:52.455Z,0
2022-11-05T02:07:52.454Z,0
2022-11-05T02:08:52.472Z,0
2022-11-05T02:09:52.468Z,0
2022-11-05T02:10:52.467Z,0
2022-11-05T02:11:52.475Z,0
2022-11-05T02:12:52.469Z,0
2022-11-05T02:13:52.530Z,0
2022-11-05T02:14:52.542Z,0
2022-11-05T02:15:52.485Z,0
2022-11-05T02:16:52.483Z,0
2022-11-05T02:17:52.483Z,0
2022-11-05T02:18:52.486Z,0
2022-11-05T02:19:52.504Z,0
2022-11-05T02:20:52.538Z,0
2022-11-05T02:21:52.519Z,0
2022-11-05T02:22:52.532Z,0
2022-11-05T02:23:52.541Z,0
2022-11-05T02:24:52.527Z,0
2022-11-05T02:25:52.504Z,0
2022-11-05T02:26:52.676Z,0
2022-11-05T02:27:52.524Z,0
2022-11-05T02:28:52.525Z,0
2022-11-05T02:29:52.555Z,0
2022-11-05T02:30:52.551Z,0
2022-11-05T02:31:52.526Z,0
2022-11-05T02:32:52.526Z,0
2022-11-05T02:33:52.559Z,0
2022-11-05T02:34:52.525Z,0
2022-11-05T02:35:52.517Z,0
2022-11-05T02:36:52.520Z,0
2022-11-05T02:37:52.517Z,0
2022-11-05T02:38:52.551Z,0
2022-11-05T02:39:52.573Z,0
2022-11-05T02:40:52.533Z,0
2022-11-05T02:41:52.542Z,0
2022-11-05T02:42:52.551Z,0
2022-11-05T02:43:52.576Z,0
2022-11-05T02:44:52.581Z,0
2022-11-05T02:45:52.542Z,0
2022-11-05T02:46:52.580Z,0
2022-11-05T02:47:52.541Z,0
2022-11-05T02:48:52.581Z,0
2022-11-05T02:49:52.576Z,0
2022-11-05T02:50:52.590Z,0
2022-11-05T02:51:52.558Z,0
2022-11-05T02:52:52.554Z,0
2022-11-05T02:53:52.580Z,0
2022-11-05T02:54:52.581Z,0
2022-11-05T02:55:52.560Z,0
2022-11-05T02:56:52.571Z,0
2022-11-05T02:57:52.580Z,0
2022-11-05T02:58:52.584Z,0
2022-11-05T02:59:52.573Z,0
2022-11-05T03:00:52.614Z,0
2022-11-05T03:01:52.745Z,0
2022-11-05T03:02:52.722Z,0.6
2022-11-05T03:03:52.622Z,0
2022-11-05T03:04:52.596Z,0
2022-11-05T03:05:52.589Z,0
2022-11-05T03:06:52.593Z,0
2022-11-05T03:07:52.601Z,0
2022-11-05T03:08:52.625Z,0
2022-11-05T03:09:52.662Z,0
2022-11-05T03:10:52.612Z,0
2022-11-05T03:11:52.645Z,0
2022-11-05T03:12:52.639Z,0
2022-11-05T03:13:52.661Z,0
2022-11-05T03:14:52.633Z,0
2022-11-05T03:15:52.647Z,0
2022-11-05T03:16:52.644Z,0
2022-11-05T03:17:52.634Z,0
2022-11-05T03:18:52.676Z,0
2022-11-05T03:19:52.684Z,0
2022-11-05T03:20:52.661Z,0
2022-11-05T03:21:52.655Z,0
2022-11-05T03:22:52.654Z,0
2022-11-05T03:23:52.682Z,0
2022-11-05T03:24:52.688Z,0
2022-11-05T03:25:52.648Z,0
2022-11-05T03:26:52.668Z,0
2022-11-05T03:27:52.652Z,0
2022-11-05T03:28:52.653Z,0
2022-11-05T03:29:52.662Z,0
2022-11-05T03:30:52.713Z,0
2022-11-05T03:31:52.671Z,0
2022-11-05T03:32:52.676Z,0
2022-11-05T03:33:52.694Z,0
2022-11-05T03:34:52.736Z,0
2022-11-05T03:35:52.685Z,0
2022-11-05T03:36:52.783Z,0
2022-11-05T03:37:52.686Z,0
2022-11-05T03:38:52.687Z,0
2022-11-05T03:39:52.695Z,0
2022-11-05T03:40:52.724Z,0
2022-11-05T03:41:52.694Z,0
2022-11-05T03:42:52.707Z,0
2022-11-05T03:43:52.691Z,0
2022-11-05T03:44:52.693Z,0
2022-11-05T03:45:52.720Z,0
2022-11-05T03:46:52.724Z,0
2022-11-05T03:47:52.708Z,0
2022-11-05T03:48:52.889Z,0
2022-11-05T03:49:52.698Z,0
2022-11-05T03:50:52.730Z,0
2022-11-05T03:51:52.711Z,0
2022-11-05T03:52:52.702Z,0
2022-11-05T03:53:52.706Z,0
2022-11-05T03:54:52.715Z,0
2022-11-05T03:55:52.767Z,0
2022-11-05T03:56:52.736Z,0
2022-11-05T03:57:52.724Z,0
2022-11-05T03:58:57.655Z,0
2022-11-05T03:59:52.746Z,0
2022-11-05T04:00:52.731Z,0
2022-11-05T04:01:52.877Z,0
2022-11-05T04:02:52.871Z,0
2022-11-05T04:03:52.776Z,0
2022-11-05T04:04:52.735Z,0
2022-11-05T04:05:52.760Z,0
2022-11-05T04:06:52.789Z,0
2022-11-05T04:07:52.744Z,0
2022-11-05T04:08:52.747Z,0
2022-11-05T04:09:52.782Z,0
2022-11-05T04:10:52.763Z,0
2022-11-05T04:11:52.788Z,0
2022-11-05T04:12:52.809Z,0
2022-11-05T04:13:52.769Z,0
2022-11-05T04:14:52.771Z,0
2022-11-05T04:15:52.777Z,0
2022-11-05T04:16:52.789Z,0
2022-11-05T04:17:52.766Z,0
2022-11-05T04:18:52.779Z,0
2022-11-05T04:19:52.776Z,0
2022-11-05T04:20:52.794Z,0
2022-11-05T04:21:52.790Z,0
2022-11-05T04:22:52.802Z,0
2022-11-05T04:23:52.785Z,0
2022-11-05T04:24:52.773Z,0.5
2022-11-05T04:25:52.822Z,0
2022-11-05T04:26:52.807Z,0
2022-11-05T04:27:52.818Z,0
2022-11-05T04:28:52.827Z,0
2022-11-05T04:29:52.843Z,0
2022-11-05T04:30:52.830Z,0
2022-11-05T04:31:52.817Z,0
2022-11-05T04:32:52.819Z,0
2022-11-05T04:33:52.823Z,0
2022-11-05T04:34:52.850Z,0
2022-11-05T04:35:52.815Z,0
2022-11-05T04:36:52.816Z,0
2022-11-05T04:37:52.829Z,0
2022-11-05T04:38:52.950Z,0
2022-11-05T04:39:52.827Z,0
2022-11-05T04:40:52.838Z,0
2022-11-05T04:41:52.821Z,0
2022-11-05T04:42:52.841Z,0.7
2022-11-05T04:43:52.827Z,0.7
2022-11-05T04:44:52.819Z,0.6
2022-11-05T04:45:52.831Z,0
2022-11-05T04:46:52.827Z,0
2022-11-05T04:47:52.837Z,0
2022-11-05T04:48:52.839Z,0
2022-11-05T04:49:52.841Z,0
2022-11-05T04:50:52.987Z,0.5
2022-11-05T04:51:52.850Z,0.8
2022-11-05T04:52:52.860Z,0
2022-11-05T04:53:52.864Z,0.6
2022-11-05T04:54:52.902Z,0.6
2022-11-05T04:55:52.901Z,0
2022-11-05T04:56:52.880Z,0
2022-11-05T04:57:52.893Z,0
2022-11-05T04:58:52.885Z,0
2022-11-05T04:59:52.882Z,0
2022-11-05T05:00:52.951Z,0
2022-11-05T05:01:52.922Z,0
2022-11-05T05:02:52.917Z,0
2022-11-05T05:03:52.907Z,0
2022-11-05T05:04:52.903Z,0
2022-11-05T05:05:53.879Z,0
2022-11-05T05:06:52.898Z,0
2022-11-05T05:07:52.905Z,0
2022-11-05T05:08:52.911Z,0.9
2022-11-05T05:09:52.891Z,0
2022-11-05T05:10:52.939Z,0
2022-11-05T05:11:52.907Z,1.2
2022-11-05T05:12:52.906Z,0
2022-11-05T05:13:52.960Z,0.8
2022-11-05T05:14:52.927Z,0
2022-11-05T05:15:52.936Z,0.5
2022-11-05T05:16:52.942Z,0.9
2022-11-05T05:17:52.949Z,0.7
2022-11-05T05:18:52.972Z,0
2022-11-05T05:19:52.944Z,0.8
2022-11-05T05:20:52.940Z,1
2022-11-05T05:21:52.945Z,0.8
2022-11-05T05:22:52.947Z,1.3
2022-11-05T05:23:52.953Z,1.2
2022-11-05T05:24:53.233Z,0.8
2022-11-05T05:25:52.940Z,1
2022-11-05T05:26:52.976Z,0.6
2022-11-05T05:27:52.949Z,1.1
2022-11-05T05:28:52.960Z,0.6
2022-11-05T05:29:52.973Z,0.8
2022-11-05T05:30:57.687Z,0
2022-11-05T05:31:52.942Z,0.6
2022-11-05T05:32:52.947Z,0.9
2022-11-05T05:33:52.972Z,1.5
2022-11-05T05:34:52.946Z,0.8
2022-11-05T05:35:52.950Z,0
2022-11-05T05:36:53.058Z,0.5
2022-11-05T05:37:53.002Z,0.8
2022-11-05T05:38:53.007Z,0.7
2022-11-05T05:39:53.019Z,0
2022-11-05T05:40:53.008Z,0
2022-11-05T05:41:53.012Z,0
2022-11-05T05:42:53.016Z,0
2022-11-05T05:43:53.027Z,0
2022-11-05T05:44:52.994Z,0
2022-11-05T05:45:53.037Z,0
2022-11-05T05:46:53.149Z,0
2022-11-05T05:47:53.004Z,0
2022-11-05T05:48:53.033Z,0
2022-11-05T05:49:53.034Z,0
2022-11-05T05:50:53.012Z,0
2022-11-05T05:51:53.034Z,0
2022-11-05T05:52:53.019Z,0
2022-11-05T05:53:53.035Z,0
2022-11-05T05:54:53.042Z,0
2022-11-05T05:55:53.021Z,0
2022-11-05T05:56:53.024Z,0
2022-11-05T05:57:53.039Z,0
2022-11-05T05:58:53.058Z,0
2022-11-05T05:59:53.026Z,0
2022-11-05T06:00:53.029Z,0
2022-11-05T06:01:53.167Z,0
2022-11-05T06:02:53.056Z,0
2022-11-05T06:03:53.064Z,0
2022-11-05T06:04:53.042Z,0
2022-11-05T06:05:53.077Z,0
2022-11-05T06:06:53.047Z,0
2022-11-05T06:07:53.083Z,0
2022-11-05T06:08:53.085Z,0
2022-11-05T06:09:53.107Z,0
2022-11-05T06:10:53.229Z,0
2022-11-05T06:11:53.080Z,0
2022-11-05T06:12:53.073Z,0
2022-11-05T06:13:53.084Z,0
2022-11-05T06:14:53.107Z,0
2022-11-05T06:15:53.078Z,0
2022-11-05T06:16:53.067Z,0
2022-11-05T06:17:53.077Z,0
2022-11-05T06:18:53.087Z,0
2022-11-05T06:19:53.107Z,0
2022-11-05T06:20:53.097Z,0
2022-11-05T06:21:53.092Z,0
2022-11-05T06:22:53.095Z,0
2022-11-05T06:23:53.105Z,0
2022-11-05T06:24:53.090Z,0
2022-11-05T06:25:53.102Z,0
2022-11-05T06:26:53.106Z,0
2022-11-05T06:27:53.099Z,0
2022-11-05T06:28:53.137Z,0
2022-11-05T06:29:53.098Z,0
2022-11-05T06:30:53.127Z,0
2022-11-05T06:31:53.092Z,0
2022-11-05T06:32:53.099Z,0
2022-11-05T06:33:53.136Z,0
2022-11-05T06:34:53.102Z,0
2022-11-05T06:35:53.121Z,0
2022-11-05T06:36:53.121Z,0
2022-11-05T06:37:53.117Z,0
2022-11-05T06:38:53.110Z,0
2022-11-05T06:39:53.121Z,0
2022-11-05T06:40:53.134Z,0
2022-11-05T06:42:53.126Z,0
2022-11-05T06:43:53.161Z,0
2022-11-05T06:44:53.137Z,0
2022-11-05T06:45:53.148Z,0
2022-11-05T06:46:53.346Z,0
2022-11-05T06:47:53.156Z,0
2022-11-05T06:48:53.161Z,0
2022-11-05T06:49:53.139Z,0
2022-11-05T06:50:53.149Z,0
2022-11-05T06:51:53.165Z,0
2022-11-05T06:52:53.140Z,0
2022-11-05T06:53:53.176Z,0
2022-11-05T06:54:53.160Z,0
2022-11-05T06:55:53.190Z,0
2022-11-05T06:56:53.165Z,0
2022-11-05T06:57:53.162Z,0
2022-11-05T06:58:53.189Z,0
2022-11-05T06:59:57.177Z,0
2022-11-05T07:00:53.177Z,0
2022-11-05T07:01:53.216Z,0
2022-11-05T07:02:53.207Z,0
2022-11-05T07:03:53.225Z,0
2022-11-05T07:04:53.191Z,0
2022-11-05T07:05:53.200Z,0
2022-11-05T07:06:53.242Z,0
2022-11-05T07:07:53.210Z,0
2022-11-05T07:08:53.204Z,0
2022-11-05T07:09:53.208Z,0
2022-11-05T07:10:53.215Z,0
2022-11-05T07:11:53.193Z,0
2022-11-05T07:12:53.192Z,0.7
2022-11-05T07:13:53.210Z,0.9
2022-11-05T07:14:53.218Z,0.5
2022-11-05T07:15:53.207Z,0.7
2022-11-05T07:16:53.211Z,0.5
2022-11-05T07:17:53.210Z,0
2022-11-05T07:18:53.248Z,0
2022-11-05T07:19:53.216Z,0
2022-11-05T07:20:53.226Z,0
2022-11-05T07:21:53.208Z,0
2022-11-05T07:22:53.206Z,0
2022-11-05T07:23:53.223Z,0
2022-11-05T07:24:53.239Z,0.6
2022-11-05T07:25:53.242Z,0
2022-11-05T07:26:53.221Z,0.5
2022-11-05T07:27:53.235Z,0.8
2022-11-05T07:28:53.224Z,0
2022-11-05T07:29:53.229Z,0
2022-11-05T07:30:53.239Z,0
2022-11-05T07:31:53.237Z,0
2022-11-05T07:32:53.231Z,0
2022-11-05T07:33:53.228Z,0
2022-11-05T07:34:53.242Z,0
2022-11-05T07:35:53.227Z,0
2022-11-05T07:36:53.231Z,0
2022-11-05T07:37:53.238Z,0
2022-11-05T07:38:57.469Z,0
2022-11-05T07:39:53.282Z,0.7
2022-11-05T07:40:53.232Z,0
2022-11-05T07:41:53.228Z,0.7
2022-11-05T07:42:53.261Z,0.9
2022-11-05T07:43:53.256Z,0
2022-11-05T07:44:53.243Z,0
2022-11-05T07:45:53.237Z,0.6
2022-11-05T07:46:53.234Z,0.7
2022-11-05T07:47:53.236Z,0.9
2022-11-05T07:48:53.252Z,1.2
2022-11-05T07:49:53.242Z,1
2022-11-05T07:50:53.263Z,0.7
2022-11-05T07:51:53.240Z,0
2022-11-05T07:52:53.268Z,0
2022-11-05T07:53:53.288Z,0.5
2022-11-05T07:54:53.250Z,0
2022-11-05T07:55:53.272Z,0
2022-11-05T07:56:53.263Z,0.8
2022-11-05T07:57:53.253Z,1.1
2022-11-05T07:58:53.289Z,1.1
2022-11-05T07:59:53.265Z,0
2022-11-05T08:00:53.379Z,1.2
2022-11-05T08:01:53.490Z,0.9
2022-11-05T08:02:53.495Z,1.1
2022-11-05T08:03:53.329Z,0
2022-11-05T08:04:53.302Z,0.9
2022-11-05T08:05:53.305Z,0
2022-11-05T08:06:53.315Z,0.8
2022-11-05T08:07:53.301Z,0
2022-11-05T08:08:53.318Z,0.6
2022-11-05T08:09:53.316Z,0.5
2022-11-05T08:10:53.441Z,2.2
2022-11-05T08:11:54.693Z,0
2022-11-05T08:12:53.297Z,0.5
2022-11-05T08:13:53.333Z,0.8
2022-11-05T08:14:53.333Z,0.8
2022-11-05T08:15:53.334Z,1.3
2022-11-05T08:16:53.312Z,0.6
2022-11-05T08:17:53.322Z,1.1
2022-11-05T08:18:53.325Z,0.9
2022-11-05T08:19:53.328Z,1.5
2022-11-05T08:20:53.325Z,0.8
2022-11-05T08:21:53.332Z,0.8
2022-11-05T08:22:53.352Z,0.8
2022-11-05T08:23:53.318Z,0.9
2022-11-05T08:24:53.375Z,0
2022-11-05T08:25:53.324Z,0.6
2022-11-05T08:26:53.333Z,1
2022-11-05T08:27:53.327Z,0.8
2022-11-05T08:28:53.340Z,0
2022-11-05T08:29:53.351Z,0
2022-11-05T08:30:53.348Z,0.6
2022-11-05T08:31:53.349Z,1
2022-11-05T08:32:53.336Z,0.5
2022-11-05T08:33:55.156Z,0
2022-11-05T08:34:53.343Z,1.2
2022-11-05T08:35:53.376Z,0.7
2022-11-05T08:36:53.355Z,0.6
2022-11-05T08:37:53.352Z,1
2022-11-05T08:38:53.395Z,0
2022-11-05T08:39:53.371Z,0.5
2022-11-05T08:40:53.364Z,0.6
2022-11-05T08:41:53.359Z,0.8
2022-11-05T08:42:53.392Z,0
2022-11-05T08:43:53.399Z,0.8
2022-11-05T08:44:53.366Z,1.1
2022-11-05T08:45:53.397Z,0
2022-11-05T08:46:53.413Z,1
2022-11-05T08:47:53.383Z,0.7
2022-11-05T08:48:53.389Z,0
2022-11-05T08:49:53.386Z,0
2022-11-05T08:50:53.381Z,0
2022-11-05T08:51:53.393Z,0.5
2022-11-05T08:52:53.393Z,0
2022-11-05T08:53:53.460Z,0.7
2022-11-05T08:54:53.418Z,0.6
2022-11-05T08:55:53.401Z,0.8
2022-11-05T08:56:53.387Z,0.8
2022-11-05T08:57:53.383Z,0.5
2022-11-05T08:58:53.411Z,0.7
2022-11-05T08:59:53.402Z,0.9
2022-11-05T09:00:53.456Z,0.7
2022-11-05T09:01:53.464Z,0
2022-11-05T09:02:53.441Z,0.6
2022-11-05T09:03:53.431Z,0.6
2022-11-05T09:04:53.417Z,0
2022-11-05T09:05:53.452Z,0.8
2022-11-05T09:06:53.430Z,0.7
2022-11-05T09:07:57.963Z,0.6
2022-11-05T09:08:53.434Z,0.5
2022-11-05T09:09:53.483Z,0
2022-11-05T09:10:53.452Z,0
2022-11-05T09:12:53.425Z,0
2022-11-05T09:13:53.477Z,0
2022-11-05T09:14:53.453Z,0.6
2022-11-05T09:15:53.440Z,0
2022-11-05T09:16:53.440Z,0
2022-11-05T09:17:53.438Z,0
2022-11-05T09:18:53.454Z,0
2022-11-05T09:19:53.489Z,0
2022-11-05T09:20:53.456Z,0
2022-11-05T09:21:53.506Z,0
2022-11-05T09:22:53.460Z,0
2022-11-05T09:23:53.464Z,0.6
2022-11-05T09:24:53.463Z,0
2022-11-05T09:25:53.471Z,0
2022-11-05T09:26:53.506Z,0
2022-11-05T09:27:53.500Z,0
2022-11-05T09:28:53.506Z,0
2022-11-05T09:29:53.478Z,0
2022-11-05T09:30:53.522Z,0
2022-11-05T09:31:53.520Z,0
2022-11-05T09:32:53.494Z,0
2022-11-05T09:33:53.499Z,0
2022-11-05T09:34:53.498Z,0
2022-11-05T09:35:53.603Z,0
2022-11-05T09:36:53.496Z,0
2022-11-05T09:37:56.780Z,0
2022-11-05T09:38:53.530Z,0
2022-11-05T09:39:53.512Z,0
2022-11-05T09:40:53.509Z,0
2022-11-05T09:41:53.506Z,0
2022-11-05T09:42:53.526Z,1.1
2022-11-05T09:43:53.535Z,0.9
2022-11-05T09:44:53.545Z,0
2022-11-05T09:45:53.526Z,0
2022-11-05T09:46:53.538Z,0.8
2022-11-05T09:47:53.522Z,0.7
2022-11-05T09:48:53.554Z,0.5
2022-11-05T09:49:53.526Z,0.8
2022-11-05T09:50:53.530Z,0
2022-11-05T09:51:53.528Z,0.8
2022-11-05T09:52:53.543Z,0.9
2022-11-05T09:53:53.680Z,0
2022-11-05T09:54:53.588Z,0
2022-11-05T09:55:53.577Z,0
2022-11-05T09:56:53.552Z,0
2022-11-05T09:57:53.547Z,0
2022-11-05T09:58:53.608Z,0
2022-11-05T09:59:53.563Z,0
2022-11-05T10:00:53.579Z,0
2022-11-05T10:01:53.629Z,0
2022-11-05T10:02:53.541Z,0.7
2022-11-05T10:03:53.577Z,0.7
2022-11-05T10:04:53.635Z,0.7
2022-11-05T10:05:53.637Z,1.1
2022-11-05T10:06:53.574Z,0.7
2022-11-05T10:07:53.559Z,1.5
2022-11-05T10:08:53.683Z,0.9
2022-11-05T10:09:53.580Z,0.9
2022-11-05T10:10:53.580Z,0.5
2022-11-05T10:11:53.578Z,0
2022-11-05T10:12:53.584Z,0.6
2022-11-05T10:13:53.625Z,0
2022-11-05T10:14:53.623Z,0.8
2022-11-05T10:15:53.604Z,1.8
2022-11-05T10:16:53.606Z,0
2022-11-05T10:17:53.596Z,0
2022-11-05T10:18:53.598Z,1
2022-11-05T10:19:53.614Z,0.5
2022-11-05T10:20:53.605Z,0
2022-11-05T10:22:05.912Z,0
2022-11-05T10:22:53.601Z,0
2022-11-05T10:23:53.613Z,0.5
2022-11-05T10:24:53.618Z,1
2022-11-05T10:25:53.611Z,0
2022-11-05T10:26:53.630Z,0.6
2022-11-05T10:27:53.604Z,0.7
2022-11-05T10:28:53.620Z,0.7
2022-11-05T10:29:53.620Z,1.1
2022-11-05T10:30:53.642Z,0.5
2022-11-05T10:31:53.637Z,0.8
2022-11-05T10:32:53.624Z,0.5
2022-11-05T10:33:53.653Z,0.8
2022-11-05T10:34:53.632Z,0
2022-11-05T10:35:53.636Z,0
2022-11-05T10:36:53.633Z,0.5
2022-11-05T10:37:53.635Z,0
2022-11-05T10:38:53.650Z,0
2022-11-05T10:39:53.633Z,0.5
2022-11-05T10:40:53.669Z,0
2022-11-05T10:41:53.655Z,0
2022-11-05T10:42:53.672Z,0
2022-11-05T10:43:53.699Z,0
2022-11-05T10:44:53.663Z,0.5
2022-11-05T10:45:53.704Z,0.5
2022-11-05T10:46:53.718Z,0
2022-11-05T10:47:53.703Z,0
2022-11-05T10:48:53.716Z,0
2022-11-05T10:49:53.731Z,0
2022-11-05T10:50:53.721Z,0
2022-11-05T10:51:53.698Z,0
2022-11-05T10:52:53.705Z,0
2022-11-05T10:53:57.306Z,0
2022-11-05T10:54:53.709Z,1
2022-11-05T10:55:53.713Z,0.9
2022-11-05T10:56:53.703Z,0
2022-11-05T10:57:53.699Z,0.7
2022-11-05T10:58:53.738Z,0
2022-11-05T10:59:53.713Z,1.1
2022-11-05T11:00:53.738Z,0.5
2022-11-05T11:01:53.771Z,1.5
2022-11-05T11:02:53.772Z,1.3
2022-11-05T11:03:53.728Z,0.5
2022-11-05T11:04:53.711Z,0
2022-11-05T11:05:53.731Z,0
2022-11-05T11:06:53.834Z,0.5
2022-11-05T11:07:53.739Z,2.4
2022-11-05T11:08:53.718Z,1.5
2022-11-05T11:09:53.711Z,0
2022-11-05T11:10:53.903Z,1.8
2022-11-05T11:11:53.710Z,2
2022-11-05T11:12:53.733Z,2.4
2022-11-05T11:13:53.704Z,1.6
2022-11-05T11:14:53.707Z,2.4
2022-11-05T11:15:53.714Z,1.6
2022-11-05T11:16:53.713Z,1.6
2022-11-05T11:17:53.763Z,1.3
2022-11-05T11:18:53.732Z,1
2022-11-05T11:19:53.734Z,0.8
2022-11-05T11:20:53.723Z,0
2022-11-05T11:21:53.720Z,0.6
2022-11-05T11:22:53.727Z,0.5
2022-11-05T11:23:53.729Z,0.8
2022-11-05T11:24:53.756Z,0.9
2022-11-05T11:25:53.736Z,0.8
2022-11-05T11:26:53.722Z,1.1
2022-11-05T11:27:53.773Z,1.6
2022-11-05T11:28:53.754Z,0
2022-11-05T11:29:53.766Z,0.5
2022-11-05T11:30:54.040Z,0
2022-11-05T11:31:53.778Z,0
2022-11-05T11:32:53.765Z,0.5
2022-11-05T11:33:53.771Z,0.8
2022-11-05T11:34:53.881Z,1.3
2022-11-05T11:35:53.750Z,0.8
2022-11-05T11:36:53.758Z,0.8
2022-11-05T11:37:53.799Z,1.2
2022-11-05T11:38:53.799Z,0.6
2022-11-05T11:39:53.818Z,2.5
2022-11-05T11:40:53.797Z,3.8
2022-11-05T11:41:53.781Z,2.9
2022-11-05T11:42:53.777Z,3
2022-11-05T11:43:53.791Z,3
2022-11-05T11:44:53.766Z,2.4
2022-11-05T11:45:53.805Z,3.6
2022-11-05T11:46:53.785Z,2.5
2022-11-05T11:47:53.794Z,2.7
2022-11-05T11:48:53.777Z,2.9
2022-11-05T11:49:53.770Z,2.4
2022-11-05T11:50:53.814Z,2.4
2022-11-05T11:51:53.805Z,0.8
2022-11-05T11:52:53.795Z,2.2
2022-11-05T11:53:53.785Z,2.1
2022-11-05T11:54:53.789Z,0.6
2022-11-05T11:55:53.795Z,1.1
2022-11-05T11:56:53.812Z,0.8
2022-11-05T11:57:53.820Z,0.8
2022-11-05T11:58:53.831Z,1.1
2022-11-05T12:00:08.085Z,1.1
2022-11-05T12:00:53.816Z,2.4
2022-11-05T12:01:54.007Z,0.8
2022-11-05T12:02:58.765Z,1.9
2022-11-05T12:03:53.818Z,1.1
2022-11-05T12:04:53.868Z,1.5
2022-11-05T12:05:53.833Z,1.1
2022-11-05T12:06:53.841Z,0
2022-11-05T12:07:53.836Z,0
2022-11-05T12:08:59.500Z,0
2022-11-05T12:09:53.823Z,0
2022-11-05T12:10:53.824Z,1
2022-11-05T12:11:53.826Z,0.6
2022-11-05T12:12:53.846Z,1.4
2022-11-05T12:13:53.832Z,2.5
2022-11-05T12:14:53.842Z,1.3
2022-11-05T12:15:53.829Z,0.9
2022-11-05T12:16:53.836Z,0
2022-11-05T12:17:53.855Z,1.1
2022-11-05T12:18:53.854Z,1.2
2022-11-05T12:19:53.850Z,0.9
2022-11-05T12:20:57.919Z,0.9
2022-11-05T12:21:53.859Z,1.2
2022-11-05T12:22:53.983Z,0.6
2022-11-05T12:23:53.861Z,0.5
2022-11-05T12:24:53.860Z,0
2022-11-05T12:25:53.886Z,0.5
2022-11-05T12:26:53.863Z,0.6
2022-11-05T12:27:53.874Z,0.8
2022-11-05T12:29:17.058Z,0
2022-11-05T12:29:53.858Z,0.6
2022-11-05T12:30:53.874Z,0.7
2022-11-05T12:31:53.875Z,0.9
2022-11-05T12:32:53.959Z,1.2
2022-11-05T12:33:53.903Z,1
2022-11-05T12:34:53.939Z,0.7
2022-11-05T12:35:57.703Z,0.9
2022-11-05T12:36:53.892Z,1.1
2022-11-05T12:37:53.930Z,0
2022-11-05T12:38:53.936Z,0
2022-11-05T12:39:53.930Z,0
2022-11-05T12:40:54.905Z,0
2022-11-05T12:41:53.946Z,0
2022-11-05T12:42:53.915Z,0
2022-11-05T12:43:53.908Z,0
2022-11-05T12:44:53.922Z,0.5
2022-11-05T12:45:53.915Z,0
2022-11-05T12:46:53.957Z,0
2022-11-05T12:47:53.947Z,0
2022-11-05T12:48:53.918Z,0
2022-11-05T12:49:53.912Z,1
2022-11-05T12:50:53.911Z,0.6
2022-11-05T12:51:53.969Z,0.5
2022-11-05T12:52:53.929Z,0
2022-11-05T12:53:53.922Z,0
2022-11-05T12:54:54.044Z,0
2022-11-05T12:55:53.959Z,0
2022-11-05T12:56:53.978Z,0
2022-11-05T12:57:53.952Z,0
2022-11-05T12:58:53.944Z,0
2022-11-05T12:59:53.951Z,0
2022-11-05T13:00:54.007Z,0
2022-11-05T13:01:54.066Z,0
2022-11-05T13:02:53.962Z,0
2022-11-05T13:03:53.965Z,0
2022-11-05T13:04:53.982Z,0
2022-11-05T13:05:53.976Z,0
2022-11-05T13:06:53.966Z,0
2022-11-05T13:07:54.020Z,0
2022-11-05T13:08:53.970Z,0
2022-11-05T13:09:53.971Z,0
2022-11-05T13:10:53.991Z,0
2022-11-05T13:11:53.978Z,0
2022-11-05T13:12:53.984Z,0
2022-11-05T13:13:53.987Z,0
2022-11-05T13:14:53.977Z,0
2022-11-05T13:15:54.010Z,0
2022-11-05T13:16:54.030Z,0
2022-11-05T13:17:54.005Z,0
2022-11-05T13:18:54.058Z,0
2022-11-05T13:19:54.015Z,0
2022-11-05T13:20:54.038Z,0
2022-11-05T13:21:54.041Z,0
2022-11-05T13:22:54.026Z,0
2022-11-05T13:23:54.017Z,0
2022-11-05T13:24:54.012Z,0.5
2022-11-05T13:25:54.016Z,0
2022-11-05T13:26:54.051Z,0
2022-11-05T13:27:54.070Z,0
2022-11-05T13:28:54.130Z,0
2022-11-05T13:29:54.020Z,0
2022-11-05T13:30:54.046Z,0
2022-11-05T13:31:54.032Z,0
2022-11-05T13:32:54.029Z,0
2022-11-05T13:33:54.035Z,0
2022-11-05T13:34:54.067Z,0
2022-11-05T13:35:54.048Z,0
2022-11-05T13:36:54.036Z,0
2022-11-05T13:37:54.050Z,0
2022-11-05T13:38:54.079Z,0
2022-11-05T13:39:54.060Z,0
2022-11-05T13:40:54.061Z,0
2022-11-05T13:41:54.058Z,0
2022-11-05T13:42:54.080Z,0
2022-11-05T13:43:54.059Z,0
2022-11-05T13:44:54.065Z,0
2022-11-05T13:45:54.077Z,0
2022-11-05T13:46:54.066Z,0.5
2022-11-05T13:47:54.074Z,0
2022-11-05T13:48:54.098Z,0
2022-11-05T13:49:54.085Z,0
2022-11-05T13:50:54.080Z,0
2022-11-05T13:51:54.080Z,0
2022-11-05T13:52:54.096Z,0
2022-11-05T13:53:54.115Z,0
2022-11-05T13:54:54.319Z,0.7
2022-11-05T13:55:54.091Z,0
2022-11-05T13:56:54.092Z,0
2022-11-05T13:57:54.087Z,0
2022-11-05T13:58:54.145Z,0
2022-11-05T13:59:54.123Z,0
2022-11-05T14:00:54.132Z,0
2022-11-05T14:01:54.394Z,0
2022-11-05T14:02:54.112Z,0.7
2022-11-05T14:03:54.112Z,2.4
2022-11-05T14:04:58.122Z,1
2022-11-05T14:05:54.116Z,1.3
2022-11-05T14:06:54.095Z,2.4
2022-11-05T14:07:54.108Z,1.1
2022-11-05T14:08:54.108Z,1.5
2022-11-05T14:09:54.104Z,1.1
2022-11-05T14:10:54.105Z,2.4
2022-11-05T14:11:54.101Z,0.5
2022-11-05T14:12:54.164Z,1.8
2022-11-05T14:13:54.126Z,2.4
2022-11-05T14:14:58.596Z,2.4
2022-11-05T14:15:54.121Z,1.2
2022-11-05T14:16:54.123Z,0.6
2022-11-05T14:17:54.136Z,0.7
2022-11-05T14:18:54.118Z,0.8
2022-11-05T14:19:54.127Z,0.7
2022-11-05T14:20:54.125Z,0.6
2022-11-05T14:21:54.149Z,0.8
2022-11-05T14:22:54.143Z,0.5
2022-11-05T14:23:54.142Z,0
2022-11-05T14:24:54.154Z,0
2022-11-05T14:25:54.155Z,0
2022-11-05T14:26:54.161Z,0
2022-11-05T14:27:54.170Z,0
2022-11-05T14:28:54.149Z,0
2022-11-05T14:29:54.155Z,0
2022-11-05T14:30:54.209Z,0